createdAt,value
2023-04-27T00:01:27.849Z,2.42
2023-04-27T00:03:55.009Z,2.20
2023-04-27T00:06:22.101Z,2.72
2023-04-27T00:08:49.048Z,2.15
2023-04-27T00:11:16.052Z,2.63
2023-04-27T00:13:42.947Z,2.55
2023-04-27T00:16:09.943Z,2.20
2023-04-27T00:18:38.246Z,2.53
2023-04-27T00:21:05.257Z,2.78
2023-04-27T00:23:32.222Z,2.13
2023-04-27T00:25:59.118Z,2.90
2023-04-27T00:28:26.187Z,2.35
2023-04-27T00:30:54.659Z,2.67
2023-04-27T00:33:21.701Z,2.83
2023-04-27T00:35:50.058Z,2.88
2023-04-27T00:38:17.008Z,2.80
2023-04-27T00:40:44.063Z,2.47
2023-04-27T00:43:11.141Z,2.67
2023-04-27T00:45:42.958Z,2.90
2023-04-27T00:48:11.077Z,2.95
2023-04-27T00:50:38.886Z,2.47
2023-04-27T00:53:07.975Z,2.40
2023-04-27T00:55:35.064Z,2.83
2023-04-27T00:58:02.747Z,2.78
2023-04-27T01:00:29.783Z,2.55
2023-04-27T01:02:57.142Z,2.75
2023-04-27T01:05:25.559Z,3.05
2023-04-27T01:07:52.596Z,3.15
2023-04-27T01:10:22.027Z,3.30
2023-04-27T01:12:49.040Z,3.30
2023-04-27T01:15:15.992Z,3.08
2023-04-27T01:17:43.746Z,3.15
2023-04-27T01:20:11.848Z,2.97
2023-04-27T01:22:39.720Z,3.08
2023-04-27T01:25:08.909Z,3.30
2023-04-27T01:27:35.837Z,3.53
2023-04-27T01:30:04.402Z,3.40
2023-04-27T01:32:31.341Z,4.13
2023-04-27T01:34:58.300Z,3.33
2023-04-27T01:37:27.228Z,3.67
2023-04-27T01:39:54.176Z,3.20
2023-04-27T01:42:22.546Z,3.10
2023-04-27T01:44:49.526Z,3.35
2023-04-27T01:47:19.464Z,3.42
2023-04-27T01:49:46.420Z,2.90
2023-04-27T01:52:13.327Z,3.10
2023-04-27T01:54:40.238Z,3.58
2023-04-27T01:57:07.132Z,3.67
2023-04-27T01:59:35.471Z,3.25
2023-04-27T02:02:02.445Z,3.67
2023-04-27T02:04:30.290Z,3.22
2023-04-27T02:06:58.192Z,3.63
2023-04-27T02:09:25.151Z,3.55
2023-04-27T02:11:52.124Z,3.58
2023-04-27T02:14:19.250Z,3.72
2023-04-27T02:16:48.650Z,3.60
2023-04-27T02:19:16.522Z,3.75
2023-04-27T02:21:44.133Z,3.53
2023-04-27T02:24:11.585Z,3.88
2023-04-27T02:26:38.544Z,3.97
2023-04-27T02:29:05.522Z,4.25
2023-04-27T02:31:33.089Z,4.35
2023-04-27T02:34:01.556Z,4.45
2023-04-27T02:36:28.452Z,4.30
2023-04-27T02:38:55.708Z,4.55
2023-04-27T02:41:22.693Z,4.40
2023-04-27T02:43:51.375Z,4.47
2023-04-27T02:46:18.382Z,4.10
2023-04-27T02:48:45.345Z,4.30
2023-04-27T02:51:13.752Z,4.30
2023-04-27T02:53:41.061Z,4.63
2023-04-27T02:56:08.056Z,4.47
2023-04-27T02:58:35.212Z,4.63
2023-04-27T03:01:02.662Z,4.90
2023-04-27T03:03:29.783Z,4.60
2023-04-27T03:05:56.781Z,5.20
2023-04-27T03:08:25.186Z,5.00
2023-04-27T03:10:52.085Z,4.63
2023-04-27T03:13:19.157Z,4.70
2023-04-27T03:15:46.356Z,5.18
2023-04-27T03:18:13.262Z,4.93
2023-04-27T03:20:41.437Z,6.03
2023-04-27T03:23:08.333Z,5.88
2023-04-27T03:25:36.923Z,5.38
2023-04-27T03:28:04.178Z,5.43
2023-04-27T03:30:31.170Z,5.00
2023-04-27T03:32:58.474Z,5.28
2023-04-27T03:35:25.610Z,5.70
2023-04-27T03:37:55.491Z,5.78
2023-04-27T03:40:22.692Z,5.25
2023-04-27T03:42:51.058Z,5.28
2023-04-27T03:45:19.268Z,5.35
2023-04-27T03:47:46.319Z,4.97
2023-04-27T03:50:15.101Z,5.22
2023-04-27T03:52:42.150Z,5.55
2023-04-27T03:55:09.640Z,5.45
2023-04-27T03:57:36.845Z,5.60
2023-04-27T04:00:12.170Z,5.63
2023-04-27T04:02:42.360Z,5.25
2023-04-27T04:05:09.580Z,5.22
2023-04-27T04:07:36.738Z,5.18
2023-04-27T04:10:04.336Z,4.90
2023-04-27T04:12:31.279Z,5.43
2023-04-27T04:14:58.188Z,4.55
2023-04-27T04:17:30.215Z,4.82
2023-04-27T04:19:57.128Z,5.10
2023-04-27T04:22:24.038Z,4.53
2023-04-27T04:24:51.510Z,5.20
2023-04-27T04:27:18.569Z,4.60
2023-04-27T04:29:45.799Z,4.82
2023-04-27T04:32:17.798Z,4.90
2023-04-27T04:34:51.182Z,5.38
2023-04-27T04:37:19.786Z,4.40
2023-04-27T04:39:47.067Z,4.40
2023-04-27T04:42:14.447Z,4.70
2023-04-27T04:44:42.172Z,5.00
2023-04-27T04:47:10.201Z,4.65
2023-04-27T04:49:37.248Z,4.80
2023-04-27T04:52:06.922Z,4.78
2023-04-27T04:54:33.873Z,5.15
2023-04-27T04:57:02.330Z,4.82
2023-04-27T04:59:33.346Z,4.60
2023-04-27T05:02:00.432Z,4.63
2023-04-27T05:04:27.613Z,4.95
2023-04-27T05:06:54.616Z,5.20
2023-04-27T05:09:22.942Z,5.00
2023-04-27T05:11:49.895Z,5.47
2023-04-27T05:14:16.879Z,4.68
2023-04-27T05:16:43.900Z,4.95
2023-04-27T05:19:10.991Z,4.70
2023-04-27T05:21:38.469Z,4.78
2023-04-27T05:24:06.416Z,4.78
2023-04-27T05:26:34.704Z,4.75
2023-04-27T05:29:01.802Z,4.68
2023-04-27T05:31:28.782Z,5.35
2023-04-27T05:33:56.036Z,5.22
2023-04-27T05:36:22.924Z,4.55
2023-04-27T05:38:50.266Z,4.47
2023-04-27T05:41:17.251Z,4.80
2023-04-27T05:43:46.122Z,4.82
2023-04-27T05:46:14.700Z,4.88
2023-04-27T05:48:41.965Z,4.25
2023-04-27T05:51:08.953Z,5.03
2023-04-27T05:53:36.054Z,5.13
2023-04-27T05:56:04.541Z,4.85
2023-04-27T05:58:31.801Z,4.55
2023-04-27T06:01:00.693Z,4.43
2023-04-27T06:03:27.742Z,4.20
2023-04-27T06:05:58.592Z,4.53
2023-04-27T06:08:26.261Z,4.75
2023-04-27T06:10:53.788Z,4.43
2023-04-27T06:13:21.107Z,4.50
2023-04-27T06:15:48.149Z,4.22
2023-04-27T06:18:16.778Z,4.20
2023-04-27T06:20:43.812Z,4.57
2023-04-27T06:23:11.150Z,4.57
2023-04-27T06:25:40.376Z,3.75
2023-04-27T06:28:07.464Z,4.00
2023-04-27T06:30:34.509Z,4.13
2023-04-27T06:33:01.693Z,3.67
2023-04-27T06:35:30.059Z,4.20
2023-04-27T06:37:58.879Z,4.88
2023-04-27T06:40:26.235Z,3.95
2023-04-27T06:42:53.230Z,4.07
2023-04-27T06:45:20.222Z,4.97
2023-04-27T06:47:47.164Z,4.82
2023-04-27T06:50:15.901Z,4.25
2023-04-27T06:52:44.243Z,4.32
2023-04-27T06:55:11.224Z,4.25
2023-04-27T06:57:38.207Z,4.47
2023-04-27T07:00:09.284Z,3.70
2023-04-27T07:02:36.828Z,3.90
2023-04-27T07:05:04.194Z,5.38
2023-04-27T07:07:31.121Z,3.97
2023-04-27T07:09:59.491Z,3.80
2023-04-27T07:12:27.013Z,10.13
2023-04-27T07:14:54.548Z,5.90
2023-04-27T07:17:21.666Z,4.07
2023-04-27T07:19:48.615Z,3.67
2023-04-27T07:22:18.233Z,3.40
2023-04-27T07:24:45.336Z,2.97
2023-04-27T07:27:15.069Z,3.38
2023-04-27T07:29:42.421Z,3.13
2023-04-27T07:32:09.616Z,3.20
2023-04-27T07:34:49.054Z,2.80
2023-04-27T07:37:20.534Z,3.53
2023-04-27T07:39:49.067Z,3.60
2023-04-27T07:42:17.477Z,3.20
2023-04-27T07:44:44.487Z,3.20
2023-04-27T07:47:11.420Z,3.63
2023-04-27T07:49:40.329Z,2.88
2023-04-27T07:52:07.395Z,3.20
2023-04-27T07:54:35.330Z,3.20
2023-04-27T07:57:02.542Z,4.00
2023-04-27T07:59:30.922Z,3.85
2023-04-27T08:02:15.036Z,2.67
2023-04-27T08:04:45.202Z,3.00
2023-04-27T08:07:12.904Z,3.33
2023-04-27T08:09:39.983Z,3.15
2023-04-27T08:12:07.176Z,3.00
2023-04-27T08:14:36.217Z,2.72
2023-04-27T08:17:03.322Z,2.95
2023-04-27T08:19:30.467Z,3.25
2023-04-27T08:21:57.389Z,2.85
2023-04-27T08:24:24.316Z,2.90
2023-04-27T08:26:51.404Z,3.35
2023-04-27T08:29:26.800Z,3.00
2023-04-27T08:31:59.594Z,2.75
2023-04-27T08:34:27.126Z,2.97
2023-04-27T08:36:54.488Z,3.17
2023-04-27T08:39:21.767Z,3.00
2023-04-27T08:41:48.699Z,3.08
2023-04-27T08:44:16.141Z,3.05
2023-04-27T08:46:43.131Z,2.70
2023-04-27T08:49:12.346Z,2.90
2023-04-27T08:51:41.891Z,2.97
2023-04-27T08:54:09.081Z,2.97
2023-04-27T08:56:36.614Z,2.53
2023-04-27T08:59:04.576Z,3.10
2023-04-27T09:01:34.104Z,3.03
2023-04-27T09:06:36.418Z,2.47
2023-04-27T09:09:04.218Z,3.03
2023-04-27T09:11:32.652Z,3.03
2023-04-27T09:14:03.868Z,3.05
2023-04-27T09:16:31.610Z,2.92
2023-04-27T09:18:59.357Z,2.70
2023-04-27T09:21:27.869Z,3.30
2023-04-27T09:23:57.063Z,2.65
2023-04-27T09:26:26.000Z,2.38
2023-04-27T09:28:54.749Z,3.00
2023-04-27T09:31:22.844Z,2.53
2023-04-27T09:33:55.962Z,3.10
2023-04-27T09:36:23.748Z,2.90
2023-04-27T09:38:52.334Z,2.80
2023-04-27T09:41:21.722Z,3.13
2023-04-27T09:43:49.659Z,2.97
2023-04-27T09:46:16.745Z,2.95
2023-04-27T09:48:43.670Z,2.75
2023-04-27T09:51:10.659Z,3.10
2023-04-27T09:53:41.101Z,3.10
2023-04-27T09:56:21.127Z,2.80
2023-04-27T09:59:26.960Z,2.72
2023-04-27T10:01:57.341Z,2.83
2023-04-27T10:04:45.923Z,3.00
2023-04-27T10:07:16.166Z,2.50
2023-04-27T10:09:48.744Z,2.95
2023-04-27T10:12:18.228Z,3.17
2023-04-27T10:14:53.923Z,3.63
2023-04-27T10:17:26.568Z,2.30
2023-04-27T10:19:58.243Z,2.92
2023-04-27T10:22:38.816Z,2.85
2023-04-27T10:25:14.237Z,2.97
2023-04-27T10:27:41.275Z,2.65
2023-04-27T10:30:12.170Z,2.63
2023-04-27T10:32:51.534Z,2.70
2023-04-27T10:35:20.979Z,2.75
2023-04-27T10:37:48.246Z,3.22
2023-04-27T10:40:17.696Z,2.67
2023-04-27T10:42:46.047Z,3.03
2023-04-27T10:45:14.325Z,2.78
2023-04-27T10:47:42.451Z,2.58
2023-04-27T10:50:19.335Z,2.80
2023-04-27T10:52:46.858Z,3.00
2023-04-27T10:55:15.900Z,3.03
2023-04-27T10:57:49.526Z,2.67
2023-04-27T11:00:23.981Z,2.72
2023-04-27T11:02:54.830Z,2.58
2023-04-27T11:05:24.928Z,2.63
2023-04-27T11:07:52.588Z,2.65
2023-04-27T11:10:20.517Z,3.15
2023-04-27T11:12:47.790Z,3.10
2023-04-27T11:15:14.823Z,2.17
2023-04-27T11:17:44.453Z,3.08
2023-04-27T11:20:11.513Z,2.83
2023-04-27T11:22:46.253Z,2.78
2023-04-27T11:25:13.693Z,2.38
2023-04-27T11:27:41.882Z,2.92
2023-04-27T11:30:21.441Z,2.92
2023-04-27T11:32:50.742Z,2.97
2023-04-27T11:35:18.496Z,2.60
2023-04-27T11:37:45.603Z,2.65
2023-04-27T11:40:14.262Z,2.20
2023-04-27T11:42:43.627Z,2.42
2023-04-27T11:45:12.262Z,2.63
2023-04-27T11:47:41.151Z,2.47
2023-04-27T11:50:10.614Z,2.20
2023-04-27T11:52:40.160Z,2.50
2023-04-27T11:55:10.806Z,2.70
2023-04-27T11:57:39.170Z,2.38
2023-04-27T12:00:11.130Z,2.47
2023-04-27T12:02:42.150Z,2.30
2023-04-27T12:05:13.538Z,2.95
2023-04-27T12:07:41.398Z,4.07
2023-04-27T12:10:09.281Z,2.47
2023-04-27T12:12:36.415Z,2.72
2023-04-27T12:15:03.738Z,2.40
2023-04-27T12:17:31.224Z,2.92
2023-04-27T12:19:58.253Z,2.47
2023-04-27T12:22:26.974Z,3.20
2023-04-27T12:24:53.915Z,20.15
2023-04-27T12:27:20.863Z,2.50
2023-04-27T12:29:47.841Z,4.30
2023-04-27T12:32:14.868Z,2.95
2023-04-27T12:34:42.937Z,2.70
2023-04-27T12:37:09.879Z,2.80
2023-04-27T12:39:38.671Z,2.65
2023-04-27T12:42:05.649Z,2.80
2023-04-27T12:44:32.719Z,2.72
2023-04-27T12:46:59.806Z,2.90
2023-04-27T12:49:26.860Z,2.33
2023-04-27T12:51:54.122Z,2.97
2023-04-27T12:54:21.250Z,3.03
2023-04-27T12:56:52.397Z,3.08
2023-04-27T12:59:19.424Z,2.65
2023-04-27T13:01:46.464Z,3.00
2023-04-27T13:04:19.697Z,2.88
2023-04-27T13:06:47.391Z,3.03
2023-04-27T13:09:14.411Z,3.40
2023-04-27T13:11:41.404Z,2.92
2023-04-27T13:14:12.753Z,2.65
2023-04-27T13:16:40.475Z,3.55
2023-04-27T13:19:07.523Z,2.58
2023-04-27T13:21:34.455Z,2.55
2023-04-27T13:24:01.430Z,2.42
2023-04-27T13:26:28.649Z,3.17
2023-04-27T13:28:55.696Z,3.03
2023-04-27T13:31:24.153Z,3.30
2023-04-27T13:33:51.087Z,6.80
2023-04-27T13:36:18.138Z,2.75
2023-04-27T13:38:45.782Z,2.47
2023-04-27T13:41:12.749Z,3.08
2023-04-27T13:43:39.946Z,2.85
2023-04-27T13:46:07.582Z,3.13
2023-04-27T13:48:36.186Z,2.83
2023-04-27T13:51:03.100Z,8.90
2023-04-27T13:53:30.073Z,2.25
2023-04-27T13:55:58.075Z,2.97
2023-04-27T13:58:27.213Z,2.20
2023-04-27T14:00:54.669Z,2.40
2023-04-27T14:03:22.781Z,2.67
2023-04-27T14:05:51.579Z,2.42
2023-04-27T14:08:19.219Z,2.45
2023-04-27T14:10:46.410Z,2.30
2023-04-27T14:13:13.574Z,2.05
2023-04-27T14:15:41.186Z,2.33
2023-04-27T14:18:09.249Z,2.25
2023-04-27T14:20:37.373Z,2.33
2023-04-27T14:23:09.187Z,2.50
2023-04-27T14:25:36.135Z,2.55
2023-04-27T14:28:07.079Z,3.28
2023-04-27T14:30:34.748Z,2.67
2023-04-27T14:33:01.975Z,2.15
2023-04-27T14:35:28.932Z,3.10
2023-04-27T14:38:01.763Z,2.00
2023-04-27T14:40:30.904Z,4.82
2023-04-27T14:42:58.616Z,2.40
2023-04-27T14:45:29.217Z,1.92
2023-04-27T14:47:58.172Z,2.20
2023-04-27T14:50:25.350Z,2.50
2023-04-27T14:52:52.518Z,2.97
2023-04-27T14:55:19.463Z,2.50
2023-04-27T14:57:48.500Z,2.17
2023-04-27T15:00:16.415Z,2.40
2023-04-27T15:02:43.443Z,2.42
2023-04-27T15:05:10.465Z,2.10
2023-04-27T15:07:37.703Z,3.20
2023-04-27T15:10:05.810Z,2.45
2023-04-27T15:12:32.952Z,2.25
2023-04-27T15:15:01.333Z,2.38
2023-04-27T15:17:28.349Z,2.75
2023-04-27T15:19:55.332Z,2.92
2023-04-27T15:22:23.626Z,2.80
2023-04-27T15:24:50.937Z,2.90
2023-04-27T15:27:18.036Z,2.80
2023-04-27T15:29:45.019Z,2.65
2023-04-27T15:32:15.118Z,2.70
2023-04-27T15:34:44.531Z,3.13
2023-04-27T15:37:12.134Z,2.67
2023-04-27T15:39:39.192Z,2.55
2023-04-27T15:42:06.399Z,2.80
2023-04-27T15:44:33.332Z,2.20
2023-04-27T15:47:00.415Z,2.65
2023-04-27T15:49:30.147Z,2.60
2023-04-27T15:51:57.215Z,2.50
2023-04-27T15:54:24.298Z,2.47
2023-04-27T15:56:51.786Z,2.30
2023-04-27T15:59:18.709Z,3.08
2023-04-27T16:01:45.844Z,2.70
2023-04-27T16:04:12.956Z,2.67
2023-04-27T16:06:41.629Z,2.55
2023-04-27T16:09:10.588Z,2.83
2023-04-27T16:11:38.072Z,3.35
2023-04-27T16:14:05.029Z,2.70
2023-04-27T16:16:32.330Z,2.83
2023-04-27T16:18:59.454Z,2.80
2023-04-27T16:21:28.013Z,2.97
2023-04-27T16:23:56.855Z,3.13
2023-04-27T16:26:24.862Z,3.35
2023-04-27T16:28:54.432Z,3.03
2023-04-27T16:31:21.562Z,4.07
2023-04-27T16:33:49.031Z,3.00
2023-04-27T16:36:16.306Z,3.25
2023-04-27T16:38:43.287Z,2.53
2023-04-27T16:41:11.642Z,3.03
2023-04-27T16:43:38.734Z,2.65
2023-04-27T16:46:08.247Z,3.00
2023-04-27T16:48:35.338Z,3.13
2023-04-27T16:51:02.499Z,3.10
2023-04-27T16:53:29.495Z,2.95
2023-04-27T16:56:00.183Z,3.00
2023-04-27T16:58:28.921Z,3.00
2023-04-27T17:00:56.477Z,3.40
2023-04-27T17:03:23.521Z,3.25
2023-04-27T17:05:51.291Z,3.10
2023-04-27T17:08:18.312Z,3.60
2023-04-27T17:10:45.517Z,2.95
2023-04-27T17:13:17.628Z,3.28
2023-04-27T17:15:46.181Z,3.60
2023-04-27T17:18:13.243Z,3.25
2023-04-27T17:20:41.687Z,3.47
2023-04-27T17:23:09.402Z,3.33
2023-04-27T17:25:36.494Z,3.13
2023-04-27T17:28:03.828Z,3.85
2023-04-27T17:30:31.072Z,3.60
2023-04-27T17:32:59.791Z,3.72
2023-04-27T17:35:26.949Z,3.70
2023-04-27T17:37:53.967Z,3.45
2023-04-27T17:40:22.749Z,3.70
2023-04-27T17:42:49.786Z,4.57
2023-04-27T17:45:17.124Z,4.57
2023-04-27T17:47:44.033Z,4.25
2023-04-27T17:50:14.687Z,7.03
2023-04-27T17:52:41.827Z,5.53
2023-04-27T17:55:08.818Z,5.53
2023-04-27T17:57:35.930Z,5.10
2023-04-27T18:00:03.382Z,6.93
2023-04-27T18:02:36.694Z,9.02
2023-04-27T18:05:07.090Z,9.32
2023-04-27T18:07:38.985Z,5.43
2023-04-27T18:10:07.602Z,6.38
2023-04-27T18:12:35.198Z,6.93
2023-04-27T18:15:04.997Z,5.65
2023-04-27T18:17:33.309Z,6.13
2023-04-27T18:20:08.895Z,7.55
2023-04-27T18:22:39.878Z,13.48
2023-04-27T18:25:08.641Z,14.38
2023-04-27T18:27:37.523Z,6.43
2023-04-27T18:30:05.285Z,8.50
2023-04-27T18:32:34.116Z,5.30
2023-04-27T18:35:02.338Z,8.20
2023-04-27T18:37:29.305Z,6.10
2023-04-27T18:39:57.623Z,3.88
2023-04-27T18:42:24.658Z,4.18
2023-04-27T18:44:54.789Z,3.97
2023-04-27T18:47:21.940Z,3.92
2023-04-27T18:49:49.075Z,3.45
2023-04-27T18:52:16.147Z,4.10
2023-04-27T18:54:43.327Z,3.15
2023-04-27T18:57:11.693Z,3.60
2023-04-27T18:59:41.649Z,4.07
2023-04-27T19:02:08.833Z,4.03
2023-04-27T19:04:35.946Z,3.92
2023-04-27T19:07:03.069Z,4.32
2023-04-27T19:09:30.082Z,3.47
2023-04-27T19:12:02.872Z,3.92
2023-04-27T19:14:32.645Z,3.85
2023-04-27T19:16:59.698Z,4.43
2023-04-27T19:19:27.791Z,4.38
2023-04-27T19:21:54.966Z,3.70
2023-04-27T19:24:21.894Z,3.60
2023-04-27T19:26:48.980Z,4.15
2023-04-27T19:29:16.583Z,4.13
2023-04-27T19:31:45.457Z,4.57
2023-04-27T19:34:12.469Z,4.60
2023-04-27T19:36:39.352Z,5.20
2023-04-27T19:39:06.918Z,6.90
2023-04-27T19:41:33.850Z,7.22
2023-04-27T19:44:00.869Z,7.68
2023-04-27T19:46:27.805Z,7.78
2023-04-27T19:48:56.114Z,7.78
2023-04-27T19:51:23.532Z,7.57
2023-04-27T19:53:50.738Z,6.88
2023-04-27T19:56:17.788Z,7.00
2023-04-27T19:58:44.724Z,6.55
2023-04-27T20:01:13.025Z,5.72
2023-04-27T20:03:40.704Z,6.55
2023-04-27T20:06:10.411Z,5.90
2023-04-27T20:08:37.455Z,5.95
2023-04-27T20:11:04.361Z,5.90
2023-04-27T20:13:31.591Z,5.68
2023-04-27T20:15:59.196Z,5.85
2023-04-27T20:18:28.458Z,5.57
2023-04-27T20:20:55.391Z,4.97
2023-04-27T20:23:23.880Z,5.60
2023-04-27T20:25:51.524Z,5.20
2023-04-27T20:28:18.598Z,4.82
2023-04-27T20:30:45.786Z,5.53
2023-04-27T20:33:13.911Z,5.40
2023-04-27T20:35:41.181Z,5.45
2023-04-27T20:38:08.655Z,6.28
2023-04-27T20:40:37.809Z,9.27
2023-04-27T20:43:05.041Z,6.03
2023-04-27T20:45:32.053Z,5.82
2023-04-27T20:47:59.156Z,6.22
2023-04-27T20:50:26.559Z,6.35
2023-04-27T20:52:54.716Z,6.55
2023-04-27T20:55:22.221Z,7.00
2023-04-27T20:57:50.544Z,7.93
2023-04-27T21:00:18.825Z,7.32
2023-04-27T21:02:45.939Z,6.75
2023-04-27T21:05:12.976Z,6.60
2023-04-27T21:07:39.874Z,5.85
2023-04-27T21:10:08.064Z,6.60
2023-04-27T21:12:35.041Z,6.68
2023-04-27T21:15:03.677Z,6.82
2023-04-27T21:17:30.777Z,6.97
2023-04-27T21:19:58.302Z,6.45
2023-04-27T21:22:25.275Z,6.75
2023-04-27T21:24:52.708Z,6.22
2023-04-27T21:27:19.635Z,6.93
2023-04-27T21:29:46.532Z,6.40
2023-04-27T21:32:14.803Z,6.80
2023-04-27T21:34:41.726Z,6.72
2023-04-27T21:37:08.641Z,7.07
2023-04-27T21:39:35.868Z,6.85
2023-04-27T21:42:02.785Z,5.97
2023-04-27T21:44:29.848Z,5.93
2023-04-27T21:46:57.188Z,5.40
2023-04-27T21:49:26.298Z,5.22
2023-04-27T21:51:53.236Z,5.38
2023-04-27T21:54:20.171Z,5.55
2023-04-27T21:56:47.187Z,5.93
2023-04-27T21:59:14.173Z,5.07
2023-04-27T22:01:41.189Z,6.93
2023-04-27T22:04:08.533Z,6.32
2023-04-27T22:06:38.047Z,6.63
2023-04-27T22:09:07.803Z,6.03
2023-04-27T22:11:35.122Z,5.43
2023-04-27T22:14:02.076Z,5.97
2023-04-27T22:16:30.238Z,5.95
2023-04-27T22:18:58.105Z,5.93
2023-04-27T22:21:25.583Z,5.90
2023-04-27T22:23:53.905Z,5.85
2023-04-27T22:26:20.851Z,5.80
2023-04-27T22:28:47.735Z,6.18
2023-04-27T22:31:14.736Z,5.90
2023-04-27T22:33:41.729Z,6.10
2023-04-27T22:36:09.366Z,7.10
2023-04-27T22:38:36.630Z,5.90
2023-04-27T22:41:05.259Z,6.20
2023-04-27T22:43:32.290Z,5.85
2023-04-27T22:45:59.212Z,5.97
2023-04-27T22:48:26.132Z,5.55
2023-04-27T22:50:53.145Z,5.80
2023-04-27T22:53:20.105Z,6.15
2023-04-27T22:55:47.299Z,5.85
2023-04-27T22:58:15.804Z,6.22
2023-04-27T23:00:42.815Z,5.80
2023-04-27T23:03:11.819Z,5.50
2023-04-27T23:05:39.055Z,5.85
2023-04-27T23:08:06.780Z,4.82
2023-04-27T23:10:34.842Z,5.10
2023-04-27T23:13:04.231Z,5.55
2023-04-27T23:15:32.667Z,4.78
2023-04-27T23:17:59.727Z,5.03
2023-04-27T23:20:28.868Z,4.78
2023-04-27T23:22:56.230Z,4.68
2023-04-27T23:25:23.706Z,4.78
2023-04-27T23:27:52.164Z,4.53
2023-04-27T23:30:19.976Z,4.30
2023-04-27T23:32:48.466Z,4.60
2023-04-27T23:35:15.471Z,4.07
2023-04-27T23:37:42.642Z,4.43
2023-04-27T23:40:10.173Z,4.70
2023-04-27T23:42:37.081Z,4.00
2023-04-27T23:45:05.047Z,4.03
2023-04-27T23:47:34.316Z,4.47
2023-04-27T23:50:02.958Z,5.10
2023-04-27T23:52:29.921Z,4.30
2023-04-27T23:54:57.567Z,3.88
2023-04-27T23:57:24.540Z,4.45
2023-04-27T23:59:51.615Z,4.68
